Shanghai Hongqiao International Airport
ZSSS : now visible

Airfield :











YOU CAN JOIN US ON...

 
LOGIN :

Register | Disclaimer

   EN    FR    IT 

 









Legend :    VFR   Marginal VFR   IFR   Intensive IFR   Very Intensive IFR
Visi :
Ceiling :
>= 8 km
>= 3000ft
5 to 8 km
1000 to 3000 ft
1500m to 5 km
500 to 1000 ft
800 to 1500m
200 to 500 ft
< 800m
< 200 ft
Symbols :   Thunderstorms  Fog  Heavy snow  Heavy precipitations  Wind > 20 kt






- Airport Elevation : 10 ft
- IATA code : SHA


ZSSS - Shanghai Hongqiao International

CURRENT METAR :
  • 231400Z VRB03G08MPS CAVOK 18/15 Q1011 NOSIG

EXPIRED METARs :
  • 231330Z 22003MPS 170V260 CAVOK 19/15 Q1011 NOSIG
  • 231300Z 22002MPS 180V240 CAVOK 18/15 Q1011 NOSIG
  • 231230Z 23002MPS CAVOK 19/15 Q1010 NOSIG
  • 231200Z 24002MPS CAVOK 19/15 Q1010 NOSIG
  • 231130Z VRB02G07MPS CAVOK 20/15 Q1009 NOSIG
  • 231100Z 23003MPS 190V250 CAVOK 19/15 Q1009 NOSIG
  • 231030Z 26003MPS 120V290 CAVOK 20/14 Q1009 NOSIG
  • 231000Z 23004MPS 200V260 CAVOK 20/14 Q1009 NOSIG
  • 230930Z VRB03MPS 9999 BKN033 21/14 Q1008 NOSIG

TAF TAF ZSSS
Valid from the 23 at 12:00 until the 24 at 12:00 UTC


230910Z 2312/2412 33004MPS 8000 BKN015 TX25/2406Z TN15/2321Z
BECMG 2407/2408 13004MPS
ZSHA FIR / Asia



MET'MAP, your aeronautical weather chart ! - Copyright ORBIFLY December 2007 - Disclaimer

ORBIFLY MET'MAP TEAM :

Programming & Development : Alexandra Zaïnal
Original concept : Baudouin d'Aumeries
Technical & hardware support : Manuel Goepfert
Assistance : Marc-Olivier Méhu




SOURCES & CREDITS :

   NOAA       Earth
Advisory